Time;durP1;ratioP1;P1;durP2;ratioP2;P2;SDS_P1;SDS_P2;PMS_P1;PMS_P2;Temp;Humidity;BMP_temperature;BMP_pressure;BME280_temperature;BME280_humidity;BME280_pressure;Samples;Min_cycle;Max_cycle;Signal;HPM_P1;HPM_P2
2023/05/25 00:02:07;;;;;;;;;;;;;;;14.89;100.00;99191.60;109547;1252;59973;-65
2023/05/25 00:04:35;;;;;;;;;;;;;;;14.85;100.00;99191.23;109565;1253;74678;-65
2023/05/25 00:07:03;;;;;;;;;;;;;;;14.83;100.00;99189.38;109509;1252;66336;-65
2023/05/25 00:09:30;;;;;;;;;;;;;;;14.80;100.00;99184.69;109509;1252;72702;-65
2023/05/25 00:11:58;;;;;;;;;;;;;;;14.79;100.00;99183.41;109513;1252;58925;-65
2023/05/25 00:14:26;;;;;;;;;;;;;;;14.79;100.00;99184.68;109547;1253;58829;-64
2023/05/25 00:16:53;;;;;;;;;;;;;;;14.81;100.00;99188.55;109521;1253;73375;-65
2023/05/25 00:19:21;;;;;;;;;;;;;;;14.83;100.00;99194.81;109534;1253;68010;-65
2023/05/25 00:21:48;;;;;;;;;;;;;;;14.83;100.00;99197.38;109527;1253;71358;-65
2023/05/25 00:24:16;;;;;;;;;;;;;;;14.84;100.00;99196.38;109442;1252;61745;-66
2023/05/25 00:26:43;;;;;;;;;;;;;;;14.86;100.00;99196.30;109454;1253;59851;-65
2023/05/25 00:29:11;;;;;;;;;;;;;;;14.88;100.00;99197.63;109381;1253;74647;-64
2023/05/25 00:31:38;;;;;;;;;;;;;;;14.92;100.00;99194.05;109390;1252;66836;-65
2023/05/25 00:34:06;;;;;;;;;;;;;;;14.95;100.00;99194.91;109584;1253;74146;-65
2023/05/25 00:36:33;;;;;;;;;;;;;;;14.94;100.00;99198.04;109535;1253;61679;-65
2023/05/25 00:39:00;;;;;;;;;;;;;;;14.91;100.00;99198.45;109513;1253;59984;-66
2023/05/25 00:41:28;;;;;;;;;;;;;;;14.89;100.00;99199.16;109412;1253;74635;-66
2023/05/25 00:43:55;;;;;;;;;;;;;;;14.88;100.00;99204.23;109339;1253;66708;-64
2023/05/25 00:46:23;;;;;;;;;;;;;;;14.87;100.00;99207.43;109359;1253;72627;-65
2023/05/25 00:48:51;;;;;;;;;;;;;;;14.76;100.00;99211.20;109342;1252;60394;-66
2023/05/25 00:51:18;;;;;;;;;;;;;;;14.67;100.00;99208.14;109231;1253;59011;-65
2023/05/25 00:53:45;;;;;;;;;;;;;;;14.61;100.00;99214.27;109335;1253;74709;-66
2023/05/25 00:56:13;;;;;;;;;;;;;;;14.57;100.00;99215.11;109373;1253;66956;-66
2023/05/25 00:58:41;;;;;;;;;;;;;;;14.56;100.00;99213.46;109537;1252;71812;-64
2023/05/25 01:01:10;;;;;;;;;;;;;;;14.58;100.00;99215.27;109491;1253;62214;-64
2023/05/25 01:03:38;;;;;;;;;;;;;;;14.60;100.00;99210.96;109511;1253;59738;-65
2023/05/25 01:06:07;;;;;;;;;;;;;;;14.62;100.00;99207.97;109524;1253;74078;-66
2023/05/25 01:08:34;;;;;;;;;;;;;;;14.66;100.00;99207.59;109404;1252;163442;-66
2023/05/25 01:11:02;;;;;;;;;;;;;;;14.70;100.00;99208.64;109465;1253;72654;-66
2023/05/25 01:13:29;;;;;;;;;;;;;;;14.71;100.00;99214.93;109535;1254;58925;-65
2023/05/25 01:15:57;;;;;;;;;;;;;;;14.66;100.00;99214.73;109485;1252;58900;-66
2023/05/25 01:18:24;;;;;;;;;;;;;;;14.58;100.00;99220.67;109408;1252;74880;-67
2023/05/25 01:20:56;;;;;;;;;;;;;;;14.50;100.00;99218.27;109397;1253;67616;-65
2023/05/25 01:23:25;;;;;;;;;;;;;;;14.44;100.00;99217.42;109455;1252;72705;-66
2023/05/25 01:25:56;;;;;;;;;;;;;;;14.44;100.00;99212.36;109466;1254;60091;-64
2023/05/25 01:28:34;;;;;;;;;;;;;;;14.44;100.00;99207.96;109393;1253;59826;-66
2023/05/25 01:31:02;;;;;;;;;;;;;;;14.46;100.00;99208.08;109541;1252;74674;-66
2023/05/25 01:33:29;;;;;;;;;;;;;;;14.46;100.00;99210.06;109323;1253;67616;-67
2023/05/25 01:35:56;;;;;;;;;;;;;;;14.45;100.00;99206.27;109482;1253;73108;-67
2023/05/25 01:38:25;;;;;;;;;;;;;;;14.43;100.00;99208.36;109361;1254;60042;-67
2023/05/25 01:40:52;;;;;;;;;;;;;;;14.33;100.00;99205.20;109585;1252;58902;-65
2023/05/25 01:43:20;;;;;;;;;;;;;;;14.22;100.00;99204.83;109539;1253;74705;-66
2023/05/25 01:45:48;;;;;;;;;;;;;;;14.09;100.00;99206.18;109510;1253;67586;-66
2023/05/25 01:48:15;;;;;;;;;;;;;;;13.94;100.00;99210.56;109348;1253;71368;-64
2023/05/25 01:50:47;;;;;;;;;;;;;;;13.79;100.00;99211.38;109526;1254;61637;-66
2023/05/25 01:53:15;;;;;;;;;;;;;;;13.72;100.00;99215.37;109528;1253;58975;-65
2023/05/25 01:55:45;;;;;;;;;;;;;;;13.70;100.00;99218.20;109387;1253;74686;-66
2023/05/25 01:58:13;;;;;;;;;;;;;;;13.70;100.00;99214.36;109522;1252;68077;-66
2023/05/25 02:00:40;;;;;;;;;;;;;;;13.68;100.00;99213.73;109340;1253;72887;-66
2023/05/25 02:03:08;;;;;;;;;;;;;;;13.69;100.00;99216.26;109429;1253;61746;-65
2023/05/25 02:05:36;;;;;;;;;;;;;;;13.74;100.00;99218.42;109385;1253;59731;-65
2023/05/25 02:08:04;;;;;;;;;;;;;;;13.79;100.00;99221.04;109267;1253;74822;-65
2023/05/25 02:10:31;;;;;;;;;;;;;;;13.83;100.00;99222.77;109377;1253;66325;-66
2023/05/25 02:12:59;;;;;;;;;;;;;;;13.84;100.00;99227.66;109323;1253;72003;-65
2023/05/25 02:15:29;;;;;;;;;;;;;;;13.79;100.00;99230.55;109409;1253;60393;-65
2023/05/25 02:17:58;;;;;;;;;;;;;;;13.75;100.00;99232.58;109544;1253;58932;-66
2023/05/25 02:20:28;;;;;;;;;;;;;;;13.71;100.00;99231.98;109411;1253;74658;-67
2023/05/25 02:22:56;;;;;;;;;;;;;;;13.69;100.00;99234.23;109567;1252;67724;-64
2023/05/25 02:25:23;;;;;;;;;;;;;;;13.67;100.00;99237.00;109520;1252;72657;-66
2023/05/25 02:27:50;;;;;;;;;;;;;;;13.66;100.00;99235.64;109507;1253;60409;-66
2023/05/25 02:30:18;;;;;;;;;;;;;;;13.68;100.00;99236.11;109401;1252;58882;-66
2023/05/25 02:32:45;;;;;;;;;;;;;;;13.71;100.00;99235.08;109570;1254;74663;-66
2023/05/25 02:35:13;;;;;;;;;;;;;;;13.70;100.00;99233.61;109447;1253;67546;-65
2023/05/25 02:37:40;;;;;;;;;;;;;;;13.71;100.00;99238.80;109557;1253;72636;-65
2023/05/25 02:40:09;;;;;;;;;;;;;;;13.76;100.00;99242.27;109564;1253;62115;-65
2023/05/25 02:42:36;;;;;;;;;;;;;;;13.80;100.00;99239.27;109588;1252;58861;-64
2023/05/25 02:45:05;;;;;;;;;;;;;;;13.80;100.00;99241.86;109329;1253;73856;-65
2023/05/25 02:47:33;;;;;;;;;;;;;;;13.75;100.00;99240.77;109377;1254;68016;-66
2023/05/25 02:50:01;;;;;;;;;;;;;;;13.73;100.00;99243.84;109540;1253;73271;-66
2023/05/25 02:52:30;;;;;;;;;;;;;;;13.68;100.00;99246.27;109395;1253;60376;-65
2023/05/25 02:54:58;;;;;;;;;;;;;;;13.61;100.00;99245.24;109395;1252;59788;-65
2023/05/25 02:57:30;;;;;;;;;;;;;;;13.56;100.00;99242.95;109403;1252;73395;-65
2023/05/25 02:59:58;;;;;;;;;;;;;;;13.56;100.00;99241.26;109380;1253;67561;-66
2023/05/25 03:02:25;;;;;;;;;;;;;;;13.58;100.00;99240.98;109378;1254;71403;-64
2023/05/25 03:04:53;;;;;;;;;;;;;;;13.61;100.00;99243.26;109396;1253;59050;-66
2023/05/25 03:07:20;;;;;;;;;;;;;;;13.66;100.00;99241.70;109417;1253;58971;-65
2023/05/25 03:09:48;;;;;;;;;;;;;;;13.74;100.00;99246.77;109463;1252;74790;-66
2023/05/25 03:12:15;;;;;;;;;;;;;;;13.85;100.00;99248.52;109362;1254;67566;-65
2023/05/25 03:14:43;;;;;;;;;;;;;;;13.99;100.00;99248.81;109391;1252;72647;-66
2023/05/25 03:17:10;;;;;;;;;;;;;;;14.15;100.00;99246.17;109385;1253;59433;-65
2023/05/25 03:19:37;;;;;;;;;;;;;;;14.33;100.00;99251.55;109291;1253;59823;-65
2023/05/25 03:22:05;;;;;;;;;;;;;;;14.52;100.00;99247.43;109389;1252;73338;-66
2023/05/25 03:24:33;;;;;;;;;;;;;;;14.75;100.00;99248.65;109415;1253;67606;-65
2023/05/25 03:27:01;;;;;;;;;;;;;;;14.96;100.00;99249.02;109364;1253;72871;-64
2023/05/25 03:29:28;;;;;;;;;;;;;;;15.20;100.00;99248.85;109486;1254;59250;-65
2023/05/25 03:31:56;;;;;;;;;;;;;;;15.47;100.00;99246.92;109567;1253;59359;-65
2023/05/25 03:34:25;;;;;;;;;;;;;;;15.76;100.00;99245.09;109474;1254;74595;-64
2023/05/25 03:36:53;;;;;;;;;;;;;;;16.05;100.00;99243.09;109481;1253;67819;-65
2023/05/25 03:39:21;;;;;;;;;;;;;;;16.34;100.00;99243.68;109368;1253;72885;-64
2023/05/25 03:41:50;;;;;;;;;;;;;;;16.63;100.00;99244.20;109369;1253;60411;-66
2023/05/25 03:44:17;;;;;;;;;;;;;;;16.90;100.00;99247.56;109410;1253;58931;-64
2023/05/25 03:46:45;;;;;;;;;;;;;;;17.10;100.00;99244.90;109367;1253;74667;-65
2023/05/25 03:49:12;;;;;;;;;;;;;;;17.30;100.00;99244.71;109499;1253;67538;-67
2023/05/25 03:51:41;;;;;;;;;;;;;;;17.57;100.00;99247.48;109509;1253;72685;-64
2023/05/25 03:54:09;;;;;;;;;;;;;;;17.86;100.00;99246.01;109409;1253;60433;-64
2023/05/25 03:56:37;;;;;;;;;;;;;;;18.21;100.00;99246.14;109534;1253;59325;-65
2023/05/25 03:59:05;;;;;;;;;;;;;;;18.58;100.00;99238.45;109484;1253;74692;-65
2023/05/25 04:01:32;;;;;;;;;;;;;;;18.87;100.00;99235.35;109372;1253;67707;-66
2023/05/25 04:04:01;;;;;;;;;;;;;;;19.13;100.00;99237.45;109446;1252;72301;-66
2023/05/25 04:06:29;;;;;;;;;;;;;;;19.47;100.00;99234.16;109352;1254;62168;-64
2023/05/25 04:08:56;;;;;;;;;;;;;;;19.79;100.00;99232.43;109569;1252;59777;-65
2023/05/25 04:11:26;;;;;;;;;;;;;;;20.06;100.00;99233.04;109517;1253;75215;-67
2023/05/25 04:13:53;;;;;;;;;;;;;;;20.41;100.00;99232.04;109575;1254;66805;-67
2023/05/25 04:16:24;;;;;;;;;;;;;;;20.78;100.00;99235.30;109451;1252;73212;-67
2023/05/25 04:18:52;;;;;;;;;;;;;;;21.21;100.00;99236.04;109579;1253;60522;-67
2023/05/25 04:21:20;;;;;;;;;;;;;;;21.64;100.00;99236.64;109362;1252;58995;-67
2023/05/25 04:23:47;;;;;;;;;;;;;;;21.99;100.00;99238.11;109478;1254;74679;-67
2023/05/25 04:26:15;;;;;;;;;;;;;;;22.35;100.00;99238.70;109373;1253;66861;-68
2023/05/25 04:28:42;;;;;;;;;;;;;;;22.71;100.00;99233.03;109328;1252;74503;-67
2023/05/25 04:31:20;;;;;;;;;;;;;;;23.11;100.00;99231.61;109430;1253;60107;-65
2023/05/25 04:34:01;;;;;;;;;;;;;;;23.51;100.00;99233.34;109512;1254;59836;-64
2023/05/25 04:36:41;;;;;;;;;;;;;;;23.87;100.00;99236.37;109487;1253;74742;-68
2023/05/25 04:39:10;;;;;;;;;;;;;;;24.18;99.33;99233.75;109494;1252;67811;-67
2023/05/25 04:41:42;;;;;;;;;;;;;;;24.41;97.69;99232.55;109388;1254;74964;-65
2023/05/25 04:44:12;;;;;;;;;;;;;;;24.60;96.17;99228.48;109343;1254;58954;-68
2023/05/25 04:46:48;;;;;;;;;;;;;;;24.81;96.35;99228.23;109411;1253;60806;-67
2023/05/25 04:49:25;;;;;;;;;;;;;;;25.12;94.40;99229.52;109370;1253;74577;-67
2023/05/25 04:51:53;;;;;;;;;;;;;;;25.41;92.15;99227.09;109471;1253;66352;-67
2023/05/25 04:54:20;;;;;;;;;;;;;;;25.63;89.93;99232.86;109530;1253;72656;-67
2023/05/25 04:56:47;;;;;;;;;;;;;;;25.81;89.09;99233.66;109550;1253;60070;-70
2023/05/25 04:59:15;;;;;;;;;;;;;;;26.07;88.59;99230.52;109594;1252;59351;-70
2023/05/25 05:01:43;;;;;;;;;;;;;;;26.37;86.60;99227.42;109557;1253;74667;-71
2023/05/25 05:04:14;;;;;;;;;;;;;;;26.66;84.48;99226.48;109391;1254;67601;-69
2023/05/25 05:06:42;;;;;;;;;;;;;;;26.88;80.36;99227.52;109268;1254;72694;-68
2023/05/25 05:09:14;;;;;;;;;;;;;;;27.13;73.00;99223.39;109260;1254;58999;-73
2023/05/25 05:11:42;;;;;;;;;;;;;;;27.44;67.22;99225.39;109366;1254;58848;-68
2023/05/25 05:14:10;;;;;;;;;;;;;;;27.71;63.37;99222.55;109410;1254;74660;-73
2023/05/25 05:16:38;;;;;;;;;;;;;;;27.95;61.26;99231.00;109382;1253;67214;-69
2023/05/25 05:19:05;;;;;;;;;;;;;;;28.19;59.58;99227.86;109362;1254;73130;-69
2023/05/25 05:21:33;;;;;;;;;;;;;;;28.38;58.10;99230.42;109350;1252;58952;-71
2023/05/25 05:24:03;;;;;;;;;;;;;;;28.58;56.31;99230.45;109378;1253;58843;-73
2023/05/25 05:26:30;;;;;;;;;;;;;;;28.81;54.56;99233.72;109429;1257;73444;-69
2023/05/25 05:29:15;;;;;;;;;;;;;;;29.08;53.69;99233.27;109402;1253;69981;-70
2023/05/25 05:31:43;;;;;;;;;;;;;;;29.37;52.03;99233.95;109576;1254;71975;-58
2023/05/25 05:34:10;;;;;;;;;;;;;;;29.57;50.69;99235.36;109294;1253;60095;-69
2023/05/25 05:36:37;;;;;;;;;;;;;;;29.77;49.65;99236.17;109330;1253;59816;-69
2023/05/25 05:39:23;;;;;;;;;;;;;;;29.94;46.84;99237.91;109403;1253;74698;-69
2023/05/25 05:41:50;;;;;;;;;;;;;;;30.05;45.35;99239.20;109456;1254;67697;-69
2023/05/25 05:44:22;;;;;;;;;;;;;;;30.13;44.42;99242.23;109383;1254;71490;-71
2023/05/25 05:46:58;;;;;;;;;;;;;;;30.29;43.72;99242.91;109355;1253;58954;-68
2023/05/25 05:49:28;;;;;;;;;;;;;;;30.43;42.94;99249.16;109508;1254;59353;-70
2023/05/25 05:51:55;;;;;;;;;;;;;;;30.51;42.79;99253.02;109401;1254;73389;-71
2023/05/25 05:54:22;;;;;;;;;;;;;;;30.68;42.04;99252.55;109511;1253;66323;-70
2023/05/25 05:56:50;;;;;;;;;;;;;;;30.83;41.20;99250.08;109404;1254;71501;-68
2023/05/25 05:59:20;;;;;;;;;;;;;;;30.91;41.30;99246.56;109352;1254;58958;-71
2023/05/25 06:01:47;;;;;;;;;;;;;;;31.05;41.51;99249.20;109534;1253;58942;-68
2023/05/25 06:04:14;;;;;;;;;;;;;;;31.09;41.40;99255.71;109546;1253;75087;-71
2023/05/25 06:06:44;;;;;;;;;;;;;;;31.10;41.57;99255.21;109450;1254;66992;-74
2023/05/25 06:09:12;;;;;;;;;;;;;;;31.21;41.14;99254.69;109427;1253;72723;-72
2023/05/25 06:11:40;;;;;;;;;;;;;;;31.29;40.77;99252.30;109241;1256;59213;-69
2023/05/25 06:14:07;;;;;;;;;;;;;;;31.48;40.34;99254.86;109435;1254;58900;-71
2023/05/25 06:16:35;;;;;;;;;;;;;;;31.69;39.76;99250.27;109390;1254;74630;-68
2023/05/25 06:19:03;;;;;;;;;;;;;;;31.95;38.83;99251.82;109403;1254;68079;-67
2023/05/25 06:21:30;;;;;;;;;;;;;;;32.14;37.85;99248.66;109554;1253;71180;-68
2023/05/25 06:23:57;;;;;;;;;;;;;;;32.27;36.82;99248.63;109523;1254;59070;-67
2023/05/25 06:26:25;;;;;;;;;;;;;;;32.26;36.05;99251.23;109544;1253;59904;-69
2023/05/25 06:28:55;;;;;;;;;;;;;;;32.29;35.94;99254.81;109425;1254;74675;-70
2023/05/25 06:31:22;;;;;;;;;;;;;;;32.34;36.04;99252.56;109440;1254;67750;-69
2023/05/25 06:33:50;;;;;;;;;;;;;;;32.47;36.08;99256.50;109496;1253;71429;-67
2023/05/25 06:36:18;;;;;;;;;;;;;;;32.63;35.13;99250.93;109427;1255;58941;-69
2023/05/25 06:38:46;;;;;;;;;;;;;;;32.74;34.61;99257.66;109303;1254;59317;-71
2023/05/25 06:41:14;;;;;;;;;;;;;;;32.81;34.45;99257.10;109400;1254;74655;-69
2023/05/25 06:43:42;;;;;;;;;;;;;;;32.93;34.49;99256.30;109536;1253;67868;-70
2023/05/25 06:46:16;;;;;;;;;;;;;;;33.06;34.07;99254.82;109425;1254;72788;-67
2023/05/25 06:48:44;;;;;;;;;;;;;;;33.14;34.06;99256.84;109387;1254;61543;-68
2023/05/25 06:51:12;;;;;;;;;;;;;;;33.27;33.79;99255.15;109433;1254;59796;-73
2023/05/25 06:53:40;;;;;;;;;;;;;;;33.37;34.20;99252.85;109470;1254;74677;-69
2023/05/25 06:56:07;;;;;;;;;;;;;;;33.53;34.32;99257.06;109437;1254;66372;-69
2023/05/25 06:58:34;;;;;;;;;;;;;;;33.71;34.20;99257.64;109338;1254;72684;-69
2023/05/25 07:01:02;;;;;;;;;;;;;;;33.86;33.98;99254.81;109401;1254;59253;-69
2023/05/25 07:03:29;;;;;;;;;;;;;;;33.88;33.78;99261.69;109445;1254;59744;-70
2023/05/25 07:05:57;;;;;;;;;;;;;;;33.90;33.73;99261.33;109515;1255;73384;-69
2023/05/25 07:08:24;;;;;;;;;;;;;;;33.89;33.33;99262.23;109536;1253;66621;-69
2023/05/25 07:10:51;;;;;;;;;;;;;;;33.91;33.23;99258.11;109493;1254;71656;-68
2023/05/25 07:13:19;;;;;;;;;;;;;;;33.93;33.11;99260.02;109535;1255;60097;-69
2023/05/25 07:15:46;;;;;;;;;;;;;;;34.06;32.15;99259.89;109537;1254;59924;-71
2023/05/25 07:18:15;;;;;;;;;;;;;;;34.26;31.30;99263.91;109583;1254;74722;-71
2023/05/25 07:20:42;;;;;;;;;;;;;;;34.40;30.21;99266.98;109587;1252;67117;-74
2023/05/25 07:23:10;;;;;;;;;;;;;;;34.43;29.66;99270.45;109492;1254;72639;-74
2023/05/25 07:25:38;;;;;;;;;;;;;;;34.44;28.67;99268.56;109509;1254;59007;-71
2023/05/25 07:28:05;;;;;;;;;;;;;;;34.56;28.74;99266.43;109506;1254;58948;-60
2023/05/25 07:30:32;;;;;;;;;;;;;;;34.71;28.31;99266.83;109447;1254;74756;-71
2023/05/25 07:33:00;;;;;;;;;;;;;;;34.82;27.99;99267.31;109523;1257;66633;-70
2023/05/25 07:35:28;;;;;;;;;;;;;;;34.94;27.66;99266.91;109531;1254;71398;-71
2023/05/25 07:37:56;;;;;;;;;;;;;;;35.08;27.46;99265.15;109619;1254;60176;-69
2023/05/25 07:40:23;;;;;;;;;;;;;;;35.23;26.92;99258.59;109546;1253;59731;-71
2023/05/25 07:42:51;;;;;;;;;;;;;;;35.35;26.93;99259.10;109468;1254;73754;-72
2023/05/25 07:45:18;;;;;;;;;;;;;;;35.51;26.39;99260.41;109465;1253;66607;-71
2023/05/25 07:47:46;;;;;;;;;;;;;;;35.68;26.07;99253.26;109490;1253;71643;-71
2023/05/25 07:50:13;;;;;;;;;;;;;;;35.79;25.24;99255.13;109375;1254;60080;-70
2023/05/25 07:52:41;;;;;;;;;;;;;;;35.75;24.81;99259.91;109564;1254;59811;-71
2023/05/25 07:55:08;;;;;;;;;;;;;;;35.62;24.08;99260.87;109613;1257;73379;-71
2023/05/25 07:57:36;;;;;;;;;;;;;;;35.45;23.86;99262.82;109512;1254;66329;-71
2023/05/25 08:00:09;;;;;;;;;;;;;;;35.45;24.05;99264.60;109450;1253;72712;-70
2023/05/25 08:02:40;;;;;;;;;;;;;;;35.64;24.12;99259.42;109414;1253;58939;-71
2023/05/25 08:05:08;;;;;;;;;;;;;;;35.84;24.14;99258.33;109471;1254;58979;-71
2023/05/25 08:07:36;;;;;;;;;;;;;;;36.07;23.40;99257.03;109457;1254;73439;-73
2023/05/25 08:10:05;;;;;;;;;;;;;;;36.18;22.78;99258.72;109470;1252;67879;-70
2023/05/25 08:12:33;;;;;;;;;;;;;;;36.18;22.59;99258.66;109420;1254;71812;-72
2023/05/25 08:15:14;;;;;;;;;;;;;;;36.21;22.70;99260.11;109556;1257;60039;-70
2023/05/25 08:17:42;;;;;;;;;;;;;;;36.32;22.47;99260.47;109535;1253;58932;-72
2023/05/25 08:20:09;;;;;;;;;;;;;;;36.42;22.01;99257.66;109572;1254;73407;-72
2023/05/25 08:22:37;;;;;;;;;;;;;;;36.61;21.76;99255.05;109542;1254;66431;-72
2023/05/25 08:25:05;;;;;;;;;;;;;;;36.61;21.03;99258.14;109489;1254;72689;-70
2023/05/25 08:27:32;;;;;;;;;;;;;;;36.50;21.26;99262.61;109494;1254;60057;-71
2023/05/25 08:30:04;;;;;;;;;;;;;;;36.48;21.39;99263.56;109545;1253;58933;-72
2023/05/25 08:32:32;;;;;;;;;;;;;;;36.57;21.28;99265.77;109512;1254;74591;-71
2023/05/25 08:35:00;;;;;;;;;;;;;;;36.58;20.95;99263.88;109523;1254;66903;-69
2023/05/25 08:37:28;;;;;;;;;;;;;;;36.41;21.12;99264.74;109534;1252;72384;-71
2023/05/25 08:39:55;;;;;;;;;;;;;;;36.39;20.90;99265.00;109501;1253;59007;-70
2023/05/25 08:42:22;;;;;;;;;;;;;;;36.39;20.80;99264.74;109487;1253;58941;-70
2023/05/25 08:44:50;;;;;;;;;;;;;;;36.47;20.87;99263.06;109504;1253;74089;-71
2023/05/25 08:47:19;;;;;;;;;;;;;;;36.62;20.58;99261.10;109544;1254;67583;-73
2023/05/25 08:49:47;;;;;;;;;;;;;;;36.95;20.08;99262.37;109409;1253;72027;-69
2023/05/25 08:52:14;;;;;;;;;;;;;;;37.07;19.05;99261.44;109545;1253;59115;-71
2023/05/25 08:54:42;;;;;;;;;;;;;;;36.98;19.23;99259.33;109630;1253;58970;-70
2023/05/25 08:57:45;;;;;;;;;;;;;;;36.83;19.23;99262.16;109527;1254;74665;-68
2023/05/25 09:00:13;;;;;;;;;;;;;;;36.70;19.71;99261.35;109043;1260;67556;-71
2023/05/25 09:02:49;;;;;;;;;;;;;;;36.81;19.31;99259.98;109088;1254;71065;-72
2023/05/25 09:05:17;;;;;;;;;;;;;;;37.00;19.48;99255.75;109202;1254;59302;-71
2023/05/25 09:07:45;;;;;;;;;;;;;;;37.20;19.18;99253.33;109307;1253;59763;-72
2023/05/25 09:10:12;;;;;;;;;;;;;;;37.22;19.13;99252.77;109482;1254;74652;-71
2023/05/25 09:12:39;;;;;;;;;;;;;;;36.95;19.23;99255.10;109367;1252;67558;-72
2023/05/25 09:15:09;;;;;;;;;;;;;;;36.82;19.43;99254.52;109401;1254;71397;-71
2023/05/25 09:17:36;;;;;;;;;;;;;;;36.93;19.66;99255.13;109329;1254;59059;-70
2023/05/25 09:20:04;;;;;;;;;;;;;;;37.35;19.48;99248.16;109236;1254;59254;-71
2023/05/25 09:22:32;;;;;;;;;;;;;;;37.71;18.85;99248.02;109219;1254;73140;-68
2023/05/25 09:24:59;;;;;;;;;;;;;;;37.91;18.56;99247.84;109289;1254;66837;-68
2023/05/25 09:27:26;;;;;;;;;;;;;;;38.17;18.91;99251.98;109291;1254;72754;-68
2023/05/25 09:29:58;;;;;;;;;;;;;;;38.04;18.43;99253.12;109297;1254;59268;-68
2023/05/25 09:32:26;;;;;;;;;;;;;;;37.05;18.60;99250.75;109300;1254;59001;-69
2023/05/25 09:34:56;;;;;;;;;;;;;;;36.24;19.40;99251.27;109252;1254;74693;-68
2023/05/25 09:37:23;;;;;;;;;;;;;;;35.88;20.10;99254.04;109385;1254;66647;-68
2023/05/25 09:39:51;;;;;;;;;;;;;;;36.14;20.14;99248.95;109393;1254;72657;-68
2023/05/25 09:42:19;;;;;;;;;;;;;;;36.77;19.74;99246.84;109309;1254;60130;-69
2023/05/25 09:44:46;;;;;;;;;;;;;;;37.51;19.27;99243.55;109370;1254;59830;-69
2023/05/25 09:47:15;;;;;;;;;;;;;;;37.93;18.79;99241.09;109329;1253;73430;-69
2023/05/25 09:49:46;;;;;;;;;;;;;;;38.28;18.70;99243.10;109415;1254;66830;-67
2023/05/25 09:52:13;;;;;;;;;;;;;;;38.55;18.43;99243.41;109201;1254;72628;-68
2023/05/25 09:54:47;;;;;;;;;;;;;;;37.99;18.55;99246.64;109256;1254;59251;-69
2023/05/25 09:57:15;;;;;;;;;;;;;;;36.84;19.50;99244.92;109393;1254;59013;-68
2023/05/25 09:59:44;;;;;;;;;;;;;;;35.85;20.25;99247.59;109427;1254;74874;-69
2023/05/25 10:02:11;;;;;;;;;;;;;;;35.11;21.39;99249.27;109431;1254;67889;-69
2023/05/25 10:04:40;;;;;;;;;;;;;;;35.50;21.11;99246.80;109378;1254;73646;-69
2023/05/25 10:07:07;;;;;;;;;;;;;;;36.29;20.60;99242.56;109420;1253;59046;-68
2023/05/25 10:09:37;;;;;;;;;;;;;;;37.07;19.83;99238.27;109440;1254;59756;-68
2023/05/25 10:12:05;;;;;;;;;;;;;;;37.99;19.22;99233.14;109438;1253;74754;-69
2023/05/25 10:14:34;;;;;;;;;;;;;;;38.50;18.77;99236.07;109435;1254;70251;-69
2023/05/25 10:17:03;;;;;;;;;;;;;;;37.77;19.06;99237.55;109429;1254;72666;-69
2023/05/25 10:19:35;;;;;;;;;;;;;;;36.70;19.60;99240.29;109380;1254;60459;-69
2023/05/25 10:22:07;;;;;;;;;;;;;;;36.03;20.50;99236.61;109462;1252;60674;-70
2023/05/25 10:24:41;;;;;;;;;;;;;;;36.35;20.84;99238.66;109481;1254;73587;-69
2023/05/25 10:27:09;;;;;;;;;;;;;;;36.77;21.07;99235.61;109382;1253;67600;-66
2023/05/25 10:29:52;;;;;;;;;;;;;;;36.08;20.84;99234.01;109350;1253;72682;-68
2023/05/25 10:32:20;;;;;;;;;;;;;;;35.15;21.52;99238.70;109379;1253;60018;-68
2023/05/25 10:34:47;;;;;;;;;;;;;;;34.48;22.23;99241.63;109360;1254;58990;-68
2023/05/25 10:37:14;;;;;;;;;;;;;;;33.86;22.48;99235.66;109474;1253;74288;-67
2023/05/25 10:39:44;;;;;;;;;;;;;;;33.26;23.18;99231.38;109360;1254;67037;-69
2023/05/25 10:42:12;;;;;;;;;;;;;;;32.69;23.94;99226.73;109395;1254;71456;-67
2023/05/25 10:44:42;;;;;;;;;;;;;;;32.31;24.39;99219.69;109381;1254;58973;-68
2023/05/25 10:47:10;;;;;;;;;;;;;;;32.14;24.85;99218.45;109412;1252;58927;-67
2023/05/25 10:49:51;;;;;;;;;;;;;;;32.07;24.52;99216.46;109463;1253;73380;-67
2023/05/25 10:52:21;;;;;;;;;;;;;;;32.02;24.51;99215.05;109486;1254;67665;-65
2023/05/25 10:54:48;;;;;;;;;;;;;;;31.92;24.61;99214.71;109458;1253;72674;-64
2023/05/25 10:57:22;;;;;;;;;;;;;;;31.82;24.79;99211.67;109592;1252;60085;-64
2023/05/25 10:59:50;;;;;;;;;;;;;;;31.68;24.66;99214.88;109530;1253;59920;-63
2023/05/25 11:02:23;;;;;;;;;;;;;;;31.48;24.62;99208.52;109560;1252;73494;-65
2023/05/25 11:04:52;;;;;;;;;;;;;;;31.33;24.63;99206.59;109528;1253;67589;-63
2023/05/25 11:07:20;;;;;;;;;;;;;;;31.19;24.73;99210.77;109532;1253;71389;-63
2023/05/25 11:10:05;;;;;;;;;;;;;;;30.99;24.71;99210.35;109387;1253;60094;-63
2023/05/25 11:12:32;;;;;;;;;;;;;;;30.74;24.98;99207.29;109540;1253;59919;-62
2023/05/25 11:15:15;;;;;;;;;;;;;;;30.54;25.59;99204.53;109541;1252;74831;-62
2023/05/25 11:17:43;;;;;;;;;;;;;;;30.35;26.67;99207.13;109517;1252;67922;-63
2023/05/25 11:20:20;;;;;;;;;;;;;;;30.19;27.24;99207.87;109565;1253;72761;-63
2023/05/25 11:22:47;;;;;;;;;;;;;;;29.98;27.05;99205.11;109558;1253;60178;-65
2023/05/25 11:25:41;;;;;;;;;;;;;;;29.77;27.18;99201.09;109481;1253;59869;-65
2023/05/25 11:28:10;;;;;;;;;;;;;;;29.64;28.33;99200.89;109384;1253;74769;-65
2023/05/25 11:30:38;;;;;;;;;;;;;;;29.56;28.31;99198.51;109581;1253;66458;-68
2023/05/25 11:33:07;;;;;;;;;;;;;;;29.49;28.16;99196.05;109503;1254;71532;-67
2023/05/25 11:35:38;;;;;;;;;;;;;;;29.49;28.48;99194.73;109493;1253;58930;-69
2023/05/25 11:38:06;;;;;;;;;;;;;;;29.56;28.60;99184.14;109599;1253;59794;-67
2023/05/25 11:40:33;;;;;;;;;;;;;;;29.68;28.39;99188.36;109513;1253;74661;-67
2023/05/25 11:43:03;;;;;;;;;;;;;;;29.79;28.23;99192.73;109506;1253;66930;-65
2023/05/25 11:45:32;;;;;;;;;;;;;;;29.90;27.71;99189.30;109420;1253;72685;-67
2023/05/25 11:48:00;;;;;;;;;;;;;;;29.95;27.97;99190.30;109409;1253;60122;-68
2023/05/25 11:50:27;;;;;;;;;;;;;;;29.94;28.59;99190.69;109504;1253;61923;-69
2023/05/25 11:52:54;;;;;;;;;;;;;;;29.90;28.64;99190.95;109452;1254;75197;-68
2023/05/25 11:55:22;;;;;;;;;;;;;;;29.74;28.69;99190.40;109483;1252;67928;-66
2023/05/25 11:57:56;;;;;;;;;;;;;;;29.62;29.28;99185.80;109469;1253;72667;-67
2023/05/25 12:00:23;;;;;;;;;;;;;;;29.49;29.33;99188.55;109564;1252;60628;-69
2023/05/25 12:02:51;;;;;;;;;;;;;;;29.30;29.16;99185.02;109491;1253;59971;-68
2023/05/25 12:05:19;;;;;;;;;;;;;;;29.11;29.67;99188.10;109482;1252;74731;-69
2023/05/25 12:07:46;;;;;;;;;;;;;;;28.95;30.40;99185.72;109546;1252;68346;-68
2023/05/25 12:10:15;;;;;;;;;;;;;;;28.73;30.40;99185.51;109488;1253;72746;-68
2023/05/25 12:12:49;;;;;;;;;;;;;;;28.47;30.42;99187.74;109447;1254;60088;-67
2023/05/25 12:15:17;;;;;;;;;;;;;;;28.18;30.88;99189.48;109543;1253;58942;-67
2023/05/25 12:17:47;;;;;;;;;;;;;;;27.90;31.47;99191.17;109451;1253;74654;-67
2023/05/25 12:20:15;;;;;;;;;;;;;;;27.66;32.51;99193.67;109491;1253;66309;-67
2023/05/25 12:22:43;;;;;;;;;;;;;;;27.47;33.30;99195.54;109453;1253;71952;-67
2023/05/25 12:25:11;;;;;;;;;;;;;;;27.32;33.98;99196.73;109336;1254;60222;-66
2023/05/25 12:27:39;;;;;;;;;;;;;;;27.20;34.67;99193.17;109546;1253;59009;-67
2023/05/25 12:30:07;;;;;;;;;;;;;;;27.12;36.16;99195.11;109416;1252;74508;-67
2023/05/25 12:32:50;;;;;;;;;;;;;;;27.08;36.64;99192.67;109403;1253;66253;-66
2023/05/25 12:35:18;;;;;;;;;;;;;;;27.01;36.14;99184.33;109432;1253;72917;-66
2023/05/25 12:37:45;;;;;;;;;;;;;;;26.98;35.72;99183.26;109414;1254;59001;-66
2023/05/25 12:40:17;;;;;;;;;;;;;;;26.97;36.08;99176.11;109414;1253;59763;-67
2023/05/25 12:42:44;;;;;;;;;;;;;;;27.03;35.96;99177.70;109424;1253;74751;-67